createdAt,value
2019-03-19T00:00:12.535Z,5.22
2019-03-19T00:02:39.307Z,5.33
2019-03-19T00:05:06.107Z,5.83
2019-03-19T00:07:33.673Z,7.92
2019-03-19T00:10:00.378Z,10.80
2019-03-19T00:12:27.193Z,8.08
2019-03-19T00:14:53.896Z,7.12
2019-03-19T00:17:20.670Z,6.58
2019-03-19T00:19:47.734Z,6.55
2019-03-19T00:22:14.704Z,5.53
2019-03-19T00:24:41.302Z,5.65
2019-03-19T00:27:07.972Z,5.78
2019-03-19T00:29:34.868Z,7.65
2019-03-19T00:32:02.101Z,8.48
2019-03-19T00:34:28.783Z,6.20
2019-03-19T00:36:55.393Z,6.03
2019-03-19T00:39:22.187Z,5.35
2019-03-19T00:41:48.774Z,6.50
2019-03-19T00:44:15.591Z,6.92
2019-03-19T00:46:42.173Z,6.37
2019-03-19T00:49:08.874Z,6.10
2019-03-19T00:51:35.659Z,5.55
2019-03-19T00:54:02.377Z,6.75
2019-03-19T00:56:29.065Z,5.60
2019-03-19T00:58:55.760Z,5.90
2019-03-19T01:01:22.527Z,6.40
2019-03-19T01:03:49.339Z,5.97
2019-03-19T01:06:16.129Z,6.42
2019-03-19T01:08:42.822Z,7.22
2019-03-19T01:11:09.414Z,7.17
2019-03-19T01:13:36.218Z,6.42
2019-03-19T01:16:03.348Z,9.28
2019-03-19T01:18:29.938Z,6.40
2019-03-19T01:20:56.752Z,5.83
2019-03-19T01:23:23.432Z,5.62
2019-03-19T01:25:55.698Z,5.30
2019-03-19T01:28:18.754Z,7.25
2019-03-19T01:30:45.867Z,4.85
2019-03-19T01:33:12.457Z,5.53
2019-03-19T01:35:39.175Z,6.25
2019-03-19T01:38:05.956Z,5.62
2019-03-19T01:40:32.771Z,6.20
2019-03-19T01:42:59.875Z,5.25
2019-03-19T01:45:26.576Z,5.35
2019-03-19T01:47:53.161Z,6.17
2019-03-19T01:50:19.882Z,5.62
2019-03-19T01:52:47.709Z,4.85
2019-03-19T01:55:14.512Z,5.75
2019-03-19T01:57:41.318Z,6.03
2019-03-19T02:00:08.690Z,5.28
2019-03-19T02:02:35.473Z,5.85
2019-03-19T02:05:02.180Z,5.78
2019-03-19T02:07:28.973Z,5.95
2019-03-19T02:09:55.763Z,5.78
2019-03-19T02:12:22.549Z,7.42
2019-03-19T02:14:49.246Z,6.05
2019-03-19T02:17:16.037Z,5.72
2019-03-19T02:19:42.756Z,6.53
2019-03-19T02:22:09.448Z,5.40
2019-03-19T02:24:36.043Z,5.42
2019-03-19T02:27:03.065Z,6.85
2019-03-19T02:29:29.654Z,5.95
2019-03-19T02:31:56.391Z,6.17
2019-03-19T02:34:25.020Z,5.35
2019-03-19T02:36:51.774Z,6.35
2019-03-19T02:39:18.370Z,6.03
2019-03-19T02:41:46.235Z,5.28
2019-03-19T02:44:12.917Z,7.05
2019-03-19T02:46:41.514Z,5.20
2019-03-19T02:49:08.310Z,5.45
2019-03-19T02:51:34.901Z,5.30
2019-03-19T02:54:01.630Z,5.62
2019-03-19T02:56:33.172Z,5.12
2019-03-19T02:58:57.067Z,6.87
2019-03-19T03:01:23.672Z,7.50
2019-03-19T03:03:50.245Z,6.12
2019-03-19T03:06:16.940Z,7.67
2019-03-19T03:08:43.717Z,6.72
2019-03-19T03:11:10.410Z,5.90
2019-03-19T03:13:37.421Z,6.83
2019-03-19T03:16:04.219Z,6.40
2019-03-19T03:18:30.989Z,7.03
2019-03-19T03:20:57.684Z,6.70
2019-03-19T03:23:25.556Z,6.22
2019-03-19T03:25:52.140Z,7.33
2019-03-19T03:28:18.820Z,8.13
2019-03-19T03:30:45.812Z,8.30
2019-03-19T03:33:12.529Z,7.05
2019-03-19T03:35:39.227Z,6.03
2019-03-19T03:38:06.003Z,6.33
2019-03-19T03:40:32.795Z,7.47
2019-03-19T03:42:59.577Z,7.60
2019-03-19T03:45:26.969Z,7.80
2019-03-19T03:47:53.761Z,6.80
2019-03-19T03:50:20.507Z,7.10
2019-03-19T03:52:47.160Z,6.78
2019-03-19T03:55:14.026Z,7.90
2019-03-19T03:57:40.810Z,8.63
2019-03-19T04:00:10.116Z,7.25
2019-03-19T04:02:36.789Z,9.95
2019-03-19T04:05:04.239Z,7.60
2019-03-19T04:07:30.931Z,7.92
2019-03-19T04:09:57.614Z,7.47
2019-03-19T04:12:24.302Z,7.20
2019-03-19T04:14:51.075Z,7.53
2019-03-19T04:17:17.878Z,8.08
2019-03-19T04:19:44.544Z,8.48
2019-03-19T04:22:11.332Z,8.65
2019-03-19T04:24:38.204Z,9.30
2019-03-19T04:27:15.473Z,7.87
2019-03-19T04:29:33.469Z,10.60
2019-03-19T04:32:00.077Z,8.78
2019-03-19T04:34:26.660Z,9.03
2019-03-19T04:36:53.359Z,9.80
2019-03-19T04:39:20.028Z,9.53
2019-03-19T04:41:46.740Z,10.40
2019-03-19T04:44:13.308Z,9.58
2019-03-19T04:46:40.117Z,12.68
2019-03-19T04:49:06.681Z,10.38
2019-03-19T04:51:33.454Z,10.72
2019-03-19T04:54:00.058Z,10.93
2019-03-19T04:56:26.758Z,9.90
2019-03-19T04:58:53.331Z,11.05
2019-03-19T05:01:20.149Z,12.50
2019-03-19T05:03:46.725Z,10.30
2019-03-19T05:06:13.421Z,11.83
2019-03-19T05:08:39.994Z,10.65
2019-03-19T05:11:06.719Z,11.40
2019-03-19T05:13:33.288Z,11.78
2019-03-19T05:16:00.154Z,12.15
2019-03-19T05:18:26.929Z,12.47
2019-03-19T05:20:55.171Z,13.18
2019-03-19T05:23:21.741Z,12.68
2019-03-19T05:25:48.311Z,13.20
2019-03-19T05:28:14.999Z,13.08
2019-03-19T05:30:41.572Z,12.10
2019-03-19T05:33:08.260Z,12.00
2019-03-19T05:35:34.974Z,13.70
2019-03-19T05:38:01.749Z,15.05
2019-03-19T05:40:28.403Z,13.78
2019-03-19T05:42:54.993Z,14.87
2019-03-19T05:45:21.663Z,14.40
2019-03-19T05:47:48.253Z,15.03
2019-03-19T05:50:15.035Z,13.78
2019-03-19T05:52:41.828Z,14.63
2019-03-19T05:55:09.402Z,15.58
2019-03-19T05:57:36.165Z,13.53
2019-03-19T06:00:03.892Z,13.68
2019-03-19T06:02:30.560Z,13.93
2019-03-19T06:04:57.150Z,13.53
2019-03-19T06:07:23.723Z,16.48
2019-03-19T06:09:50.528Z,16.30
2019-03-19T06:12:17.314Z,14.10
2019-03-19T06:14:43.989Z,15.03
2019-03-19T06:17:10.587Z,13.68
2019-03-19T06:19:37.155Z,14.23
2019-03-19T06:22:03.841Z,12.15
2019-03-19T06:24:30.602Z,12.20
2019-03-19T06:26:57.292Z,11.68
2019-03-19T06:29:23.969Z,12.78
2019-03-19T06:31:50.660Z,11.80
2019-03-19T06:34:17.328Z,11.12
2019-03-19T06:36:44.047Z,10.78
2019-03-19T06:39:10.595Z,10.32
2019-03-19T06:41:37.288Z,14.10
2019-03-19T06:44:04.065Z,13.13
2019-03-19T06:46:30.843Z,11.68
2019-03-19T06:48:57.538Z,10.48
2019-03-19T06:51:24.122Z,10.32
2019-03-19T06:53:50.713Z,9.73
2019-03-19T06:56:17.425Z,9.00
2019-03-19T06:58:44.214Z,9.63
2019-03-19T07:01:10.880Z,9.35
2019-03-19T07:03:37.572Z,8.35
2019-03-19T07:06:04.347Z,9.50
2019-03-19T07:08:31.036Z,8.53
2019-03-19T07:10:57.718Z,8.83
2019-03-19T07:13:24.321Z,7.70
2019-03-19T07:15:50.995Z,8.78
2019-03-19T07:18:17.794Z,9.40
2019-03-19T07:20:44.392Z,9.30
2019-03-19T07:23:11.177Z,9.10
2019-03-19T07:25:37.961Z,8.30
2019-03-19T07:28:04.763Z,9.68
2019-03-19T07:30:31.539Z,10.32
2019-03-19T07:32:58.225Z,10.25
2019-03-19T07:35:25.017Z,11.00
2019-03-19T07:37:51.802Z,9.90
2019-03-19T07:40:18.573Z,11.88
2019-03-19T07:42:45.366Z,9.10
2019-03-19T07:45:13.103Z,9.48
2019-03-19T07:47:39.923Z,10.40
2019-03-19T07:50:08.438Z,10.32
2019-03-19T07:52:35.109Z,9.28
2019-03-19T07:55:01.781Z,10.28
2019-03-19T07:57:29.585Z,9.08
2019-03-19T07:59:56.367Z,8.30
2019-03-19T08:02:23.174Z,8.43
2019-03-19T08:04:49.749Z,10.23
2019-03-19T08:07:16.429Z,8.80
2019-03-19T08:09:43.123Z,8.43
2019-03-19T08:12:09.702Z,10.23
2019-03-19T08:14:36.398Z,9.28
2019-03-19T08:17:03.164Z,9.65
2019-03-19T08:19:29.970Z,10.25
2019-03-19T08:21:56.759Z,9.83
2019-03-19T08:24:23.450Z,13.68
2019-03-19T08:27:09.657Z,10.63
2019-03-19T08:29:36.366Z,11.08
2019-03-19T08:32:03.160Z,11.45
2019-03-19T08:34:29.871Z,10.18
2019-03-19T08:36:56.545Z,10.38
2019-03-19T08:39:23.253Z,9.78
2019-03-19T08:41:49.798Z,11.38
2019-03-19T08:44:16.393Z,10.72
2019-03-19T08:46:43.052Z,8.95
2019-03-19T08:49:09.840Z,10.60
2019-03-19T08:51:36.538Z,10.70
2019-03-19T08:54:03.334Z,9.23
2019-03-19T08:56:30.053Z,8.15
2019-03-19T08:59:05.519Z,8.03
2019-03-19T09:01:25.307Z,6.30
2019-03-19T09:03:51.892Z,6.40
2019-03-19T09:06:18.572Z,6.15
2019-03-19T09:08:45.149Z,6.10
2019-03-19T09:11:11.814Z,6.53
2019-03-19T09:13:38.411Z,7.55
2019-03-19T09:16:05.179Z,6.28
2019-03-19T09:18:31.855Z,5.97
2019-03-19T09:20:58.519Z,5.85
2019-03-19T09:23:25.313Z,5.85
2019-03-19T09:25:51.987Z,5.72
2019-03-19T09:28:18.673Z,7.60
2019-03-19T09:30:45.425Z,5.80
2019-03-19T09:33:12.114Z,6.62
2019-03-19T09:35:38.780Z,6.28
2019-03-19T09:38:05.432Z,5.60
2019-03-19T09:40:32.228Z,5.25
2019-03-19T09:42:59.030Z,5.08
2019-03-19T09:45:25.817Z,4.80
2019-03-19T09:47:52.387Z,4.87
2019-03-19T09:50:19.175Z,5.42
2019-03-19T09:52:45.954Z,5.25
2019-03-19T09:55:12.991Z,5.00
2019-03-19T09:57:39.759Z,3.55
2019-03-19T10:00:08.754Z,4.30
2019-03-19T10:02:35.435Z,5.10
2019-03-19T10:05:02.241Z,4.10
2019-03-19T10:07:28.911Z,4.28
2019-03-19T10:09:55.603Z,4.28
2019-03-19T10:12:22.373Z,4.12
2019-03-19T10:14:49.056Z,4.95
2019-03-19T10:17:15.728Z,4.37
2019-03-19T10:19:42.329Z,4.30
2019-03-19T10:22:08.975Z,3.60
2019-03-19T10:24:35.572Z,3.72
2019-03-19T10:27:02.240Z,3.37
2019-03-19T10:29:37.823Z,3.85
2019-03-19T10:31:57.508Z,3.05
2019-03-19T10:34:24.206Z,3.00
2019-03-19T10:36:50.975Z,2.90
2019-03-19T10:39:17.574Z,3.30
2019-03-19T10:41:44.151Z,2.98
2019-03-19T10:44:10.955Z,2.92
2019-03-19T10:46:37.611Z,3.60
2019-03-19T10:49:04.395Z,3.52
2019-03-19T10:51:31.169Z,3.67
2019-03-19T10:53:57.868Z,2.52
2019-03-19T10:56:24.552Z,3.27
2019-03-19T10:58:51.346Z,2.98
2019-03-19T11:01:18.017Z,2.87
2019-03-19T11:03:44.695Z,3.52
2019-03-19T11:06:12.403Z,3.12
2019-03-19T11:08:39.058Z,3.12
2019-03-19T11:11:05.871Z,3.20
2019-03-19T11:13:32.533Z,3.00
2019-03-19T11:15:59.285Z,2.67
2019-03-19T11:18:25.911Z,2.20
2019-03-19T11:20:52.645Z,2.80
2019-03-19T11:23:19.215Z,2.45
2019-03-19T11:25:54.137Z,2.83
2019-03-19T11:28:14.473Z,2.40
2019-03-19T11:30:41.158Z,2.00
2019-03-19T11:33:07.714Z,2.80
2019-03-19T11:35:34.406Z,2.35
2019-03-19T11:38:01.079Z,2.40
2019-03-19T11:40:27.815Z,2.80
2019-03-19T11:42:54.495Z,2.80
2019-03-19T11:45:21.300Z,2.72
2019-03-19T11:47:48.072Z,3.30
2019-03-19T11:50:19.240Z,13.98
2019-03-19T11:52:46.027Z,2.98
2019-03-19T11:55:12.947Z,6.70
2019-03-19T11:57:39.744Z,3.10
2019-03-19T12:00:11.695Z,10.55
2019-03-19T12:02:38.579Z,3.20
2019-03-19T12:05:06.245Z,3.27
2019-03-19T12:07:33.847Z,3.30
2019-03-19T12:10:00.529Z,2.65
2019-03-19T12:12:27.096Z,2.55
2019-03-19T12:14:53.675Z,2.58
2019-03-19T12:17:20.340Z,2.37
2019-03-19T12:19:47.033Z,2.65
2019-03-19T12:22:13.604Z,2.22
2019-03-19T12:24:40.382Z,1.72
2019-03-19T12:27:07.078Z,1.98
2019-03-19T12:29:33.849Z,2.15
2019-03-19T12:32:00.442Z,2.27
2019-03-19T12:34:27.006Z,2.98
2019-03-19T12:36:53.791Z,3.00
2019-03-19T12:39:20.361Z,3.02
2019-03-19T12:41:48.559Z,2.20
2019-03-19T12:44:15.410Z,2.75
2019-03-19T12:46:42.000Z,2.33
2019-03-19T12:49:08.773Z,2.22
2019-03-19T12:51:35.586Z,2.55
2019-03-19T12:54:02.370Z,3.08
2019-03-19T12:56:30.477Z,2.33
2019-03-19T12:58:57.212Z,2.37
2019-03-19T13:01:24.009Z,2.02
2019-03-19T13:03:50.883Z,2.72
2019-03-19T13:06:17.714Z,2.30
2019-03-19T13:08:44.395Z,2.70
2019-03-19T13:11:11.083Z,2.37
2019-03-19T13:13:37.838Z,2.08
2019-03-19T13:16:04.534Z,2.05
2019-03-19T13:18:31.274Z,2.27
2019-03-19T13:20:57.860Z,2.72
2019-03-19T13:23:26.291Z,2.60
2019-03-19T13:25:53.124Z,2.67
2019-03-19T13:28:19.785Z,2.15
2019-03-19T13:30:46.499Z,1.85
2019-03-19T13:33:13.267Z,2.47
2019-03-19T13:35:40.065Z,2.40
2019-03-19T13:38:06.739Z,2.20
2019-03-19T13:40:33.411Z,2.58
2019-03-19T13:43:00.082Z,2.40
2019-03-19T13:45:26.957Z,2.02
2019-03-19T13:47:53.725Z,1.98
2019-03-19T13:50:20.630Z,2.52
2019-03-19T13:52:47.520Z,2.37
2019-03-19T13:55:14.693Z,2.55
2019-03-19T13:57:41.482Z,2.40
2019-03-19T14:00:09.428Z,2.12
2019-03-19T14:02:36.122Z,1.90
2019-03-19T14:05:03.595Z,2.10
2019-03-19T14:07:30.280Z,2.65
2019-03-19T14:09:57.050Z,1.90
2019-03-19T14:12:23.743Z,1.98
2019-03-19T14:14:50.545Z,3.15
2019-03-19T14:17:17.332Z,2.25
2019-03-19T14:19:43.896Z,2.60
2019-03-19T14:22:10.692Z,2.15
2019-03-19T14:24:37.354Z,1.98
2019-03-19T14:27:04.042Z,2.47
2019-03-19T14:29:30.716Z,2.05
2019-03-19T14:31:57.391Z,1.87
2019-03-19T14:34:24.161Z,2.17
2019-03-19T14:36:50.962Z,2.20
2019-03-19T14:39:17.723Z,1.87
2019-03-19T14:41:45.643Z,1.92
2019-03-19T14:44:12.499Z,1.85
2019-03-19T14:46:40.020Z,2.10
2019-03-19T14:49:06.737Z,1.87
2019-03-19T14:51:33.420Z,1.90
2019-03-19T14:54:00.101Z,2.15
2019-03-19T14:56:26.699Z,2.20
2019-03-19T14:58:53.368Z,1.77
2019-03-19T15:01:20.066Z,1.90
2019-03-19T15:03:46.873Z,1.60
2019-03-19T15:06:13.529Z,1.80
2019-03-19T15:08:40.251Z,2.12
2019-03-19T15:11:07.252Z,1.72
2019-03-19T15:13:33.843Z,1.92
2019-03-19T15:16:00.713Z,2.10
2019-03-19T15:18:27.373Z,2.00
2019-03-19T15:20:53.942Z,2.10
2019-03-19T15:23:20.811Z,2.10
2019-03-19T15:25:47.486Z,2.05
2019-03-19T15:28:14.259Z,1.55
2019-03-19T15:30:40.927Z,2.72
2019-03-19T15:33:07.542Z,1.80
2019-03-19T15:35:34.249Z,1.80
2019-03-19T15:38:01.112Z,1.22
2019-03-19T15:40:27.798Z,1.55
2019-03-19T15:42:54.559Z,1.95
2019-03-19T15:45:21.311Z,1.80
2019-03-19T15:47:47.998Z,1.82
2019-03-19T15:50:14.954Z,1.85
2019-03-19T15:52:41.852Z,4.70
2019-03-19T15:55:08.729Z,2.10
2019-03-19T15:57:35.447Z,3.92
2019-03-19T16:00:03.432Z,1.80
2019-03-19T16:02:30.129Z,2.12
2019-03-19T16:04:56.795Z,1.98
2019-03-19T16:07:23.488Z,2.25
2019-03-19T16:09:50.147Z,1.60
2019-03-19T16:12:16.826Z,2.08
2019-03-19T16:14:43.387Z,1.60
2019-03-19T16:17:10.071Z,1.80
2019-03-19T16:19:36.630Z,1.90
2019-03-19T16:22:03.428Z,2.00
2019-03-19T16:24:30.105Z,1.90
2019-03-19T16:26:56.667Z,1.92
2019-03-19T16:29:23.353Z,1.65
2019-03-19T16:31:51.090Z,2.12
2019-03-19T16:34:18.216Z,2.02
2019-03-19T16:36:44.762Z,1.50
2019-03-19T16:39:11.349Z,1.92
2019-03-19T16:41:38.010Z,2.10
2019-03-19T16:44:04.811Z,1.90
2019-03-19T16:46:31.571Z,2.22
2019-03-19T16:48:58.275Z,2.35
2019-03-19T16:51:24.947Z,2.15
2019-03-19T16:53:51.639Z,1.62
2019-03-19T16:56:18.432Z,1.82
2019-03-19T16:58:45.113Z,2.70
2019-03-19T17:01:11.778Z,2.20
2019-03-19T17:03:38.472Z,1.70
2019-03-19T17:06:05.240Z,2.00
2019-03-19T17:08:31.926Z,1.82
2019-03-19T17:10:58.697Z,1.70
2019-03-19T17:13:25.290Z,1.67
2019-03-19T17:15:51.967Z,1.95
2019-03-19T17:18:18.653Z,2.10
2019-03-19T17:20:45.441Z,3.22
2019-03-19T17:23:12.031Z,2.60
2019-03-19T17:25:38.694Z,3.00
2019-03-19T17:28:05.495Z,2.00
2019-03-19T17:30:32.327Z,2.08
2019-03-19T17:32:59.123Z,2.02
2019-03-19T17:35:25.883Z,1.92
2019-03-19T17:37:52.674Z,2.20
2019-03-19T17:40:19.442Z,2.47
2019-03-19T17:42:46.233Z,1.80
2019-03-19T17:45:13.159Z,2.30
2019-03-19T17:47:39.984Z,3.45
2019-03-19T17:50:09.597Z,5.78
2019-03-19T17:52:36.402Z,8.10
2019-03-19T17:55:03.704Z,5.05
2019-03-19T17:57:30.289Z,3.47
2019-03-19T17:59:56.972Z,2.70
2019-03-19T18:02:24.417Z,3.15
2019-03-19T18:04:51.140Z,2.08
2019-03-19T18:07:17.798Z,1.45
2019-03-19T18:09:44.393Z,1.65
2019-03-19T18:12:11.160Z,1.60
2019-03-19T18:14:37.856Z,2.08
2019-03-19T18:17:04.629Z,2.00
2019-03-19T18:19:31.711Z,1.57
2019-03-19T18:21:58.391Z,1.92
2019-03-19T18:24:24.996Z,1.85
2019-03-19T18:26:51.676Z,2.17
2019-03-19T18:29:18.359Z,2.15
2019-03-19T18:31:45.042Z,1.30
2019-03-19T18:34:11.762Z,1.95
2019-03-19T18:36:38.832Z,2.08
2019-03-19T18:39:07.011Z,1.95
2019-03-19T18:41:33.679Z,1.70
2019-03-19T18:44:00.271Z,2.20
2019-03-19T18:46:26.839Z,2.05
2019-03-19T18:48:53.440Z,2.40
2019-03-19T18:51:20.138Z,2.05
2019-03-19T18:53:46.893Z,2.35
2019-03-19T18:56:13.586Z,1.85
2019-03-19T18:58:40.280Z,2.58
2019-03-19T19:01:06.975Z,1.60
2019-03-19T19:03:33.548Z,1.98
2019-03-19T19:06:00.122Z,1.77
2019-03-19T19:08:26.906Z,2.33
2019-03-19T19:10:53.476Z,1.80
2019-03-19T19:13:20.103Z,1.80
2019-03-19T19:15:46.689Z,2.60
2019-03-19T19:18:13.432Z,1.72
2019-03-19T19:20:40.106Z,2.05
2019-03-19T19:23:06.807Z,2.10
2019-03-19T19:25:33.541Z,2.17
2019-03-19T19:28:00.249Z,2.12
2019-03-19T19:30:27.059Z,1.95
2019-03-19T19:33:01.718Z,2.52
2019-03-19T19:35:22.491Z,2.87
2019-03-19T19:37:49.161Z,3.00
2019-03-19T19:40:15.974Z,3.20
2019-03-19T19:42:42.851Z,3.17
2019-03-19T19:45:09.706Z,2.30
2019-03-19T19:47:36.501Z,2.22
2019-03-19T19:50:04.225Z,2.65
2019-03-19T19:52:30.834Z,2.08
2019-03-19T19:54:57.428Z,2.83
2019-03-19T19:57:24.213Z,2.50
2019-03-19T19:59:50.909Z,3.27
2019-03-19T20:02:17.589Z,3.25
2019-03-19T20:04:44.379Z,1.55
2019-03-19T20:07:11.157Z,1.87
2019-03-19T20:09:37.863Z,2.17
2019-03-19T20:12:04.606Z,2.83
2019-03-19T20:14:31.402Z,2.50
2019-03-19T20:16:58.080Z,2.72
2019-03-19T20:19:24.767Z,3.20
2019-03-19T20:21:51.455Z,3.52
2019-03-19T20:24:18.127Z,3.83
2019-03-19T20:26:44.817Z,3.12
2019-03-19T20:29:11.389Z,4.55
2019-03-19T20:31:38.101Z,4.62
2019-03-19T20:34:04.780Z,4.58
2019-03-19T20:36:31.488Z,5.62
2019-03-19T20:38:58.166Z,4.83
2019-03-19T20:41:24.984Z,4.67
2019-03-19T20:43:51.748Z,4.72
2019-03-19T20:46:18.546Z,4.50
2019-03-19T20:48:45.230Z,5.33
2019-03-19T20:51:12.024Z,4.70
2019-03-19T20:53:38.812Z,4.78
2019-03-19T20:56:05.532Z,5.15
2019-03-19T20:58:42.867Z,4.75
2019-03-19T21:01:01.008Z,5.50
2019-03-19T21:03:35.501Z,4.87
2019-03-19T21:05:56.209Z,3.72
2019-03-19T21:08:22.886Z,4.20
2019-03-19T21:10:49.582Z,3.30
2019-03-19T21:13:16.270Z,3.30
2019-03-19T21:15:43.078Z,5.00
2019-03-19T21:18:09.876Z,5.55
2019-03-19T21:20:36.592Z,7.08
2019-03-19T21:23:03.367Z,7.80
2019-03-19T21:25:30.171Z,7.03
2019-03-19T21:27:56.840Z,7.03
2019-03-19T21:30:23.632Z,6.47
2019-03-19T21:32:50.398Z,8.15
2019-03-19T21:35:18.594Z,13.50
2019-03-19T21:37:45.269Z,10.30
2019-03-19T21:40:12.086Z,9.80
2019-03-19T21:42:39.103Z,7.50
2019-03-19T21:45:06.329Z,6.35
2019-03-19T21:47:33.026Z,7.55
2019-03-19T21:49:59.705Z,6.15
2019-03-19T21:52:26.399Z,7.40
2019-03-19T21:54:53.217Z,6.80
2019-03-19T21:57:19.920Z,6.95
2019-03-19T21:59:46.486Z,6.72
2019-03-19T22:02:13.194Z,7.87
2019-03-19T22:04:39.778Z,6.75
2019-03-19T22:07:06.470Z,6.33
2019-03-19T22:09:33.181Z,6.90
2019-03-19T22:11:59.980Z,5.10
2019-03-19T22:14:26.661Z,5.42
2019-03-19T22:16:53.255Z,5.75
2019-03-19T22:19:19.923Z,4.97
2019-03-19T22:21:46.520Z,5.22
2019-03-19T22:24:13.306Z,5.33
2019-03-19T22:26:40.006Z,6.65
2019-03-19T22:29:06.792Z,6.85
2019-03-19T22:31:33.479Z,5.53
2019-03-19T22:34:00.147Z,5.25
2019-03-19T22:36:26.842Z,5.87
2019-03-19T22:38:53.651Z,5.65
2019-03-19T22:41:20.328Z,4.67
2019-03-19T22:43:46.929Z,4.30
2019-03-19T22:46:21.272Z,4.42
2019-03-19T22:48:42.202Z,4.15
2019-03-19T22:51:08.897Z,4.33
2019-03-19T22:53:35.475Z,3.95
2019-03-19T22:56:02.164Z,3.60
2019-03-19T22:58:28.863Z,4.33
2019-03-19T23:00:57.654Z,5.33
2019-03-19T23:03:24.452Z,4.83
2019-03-19T23:05:51.264Z,6.50
2019-03-19T23:08:18.036Z,7.25
2019-03-19T23:10:44.864Z,7.20
2019-03-19T23:13:12.172Z,7.65
2019-03-19T23:15:38.937Z,6.37
2019-03-19T23:18:05.735Z,6.78
2019-03-19T23:20:32.509Z,6.10
2019-03-19T23:22:59.304Z,5.60
2019-03-19T23:25:26.077Z,4.75
2019-03-19T23:27:52.866Z,4.75
2019-03-19T23:30:19.666Z,4.00
2019-03-19T23:32:46.364Z,4.00
2019-03-19T23:35:13.029Z,3.58
2019-03-19T23:37:39.816Z,3.35
2019-03-19T23:40:06.610Z,11.10
2019-03-19T23:42:33.198Z,15.63
2019-03-19T23:45:00.037Z,9.08
2019-03-19T23:47:26.736Z,7.22
2019-03-19T23:49:53.312Z,4.62
2019-03-19T23:52:19.911Z,3.45
2019-03-19T23:54:46.586Z,3.50
2019-03-19T23:57:13.387Z,3.72
2019-03-19T23:59:40.067Z,3.50
